sensor_id;sensor_type;location;lat;lon;timestamp;temperature;humidity
25963;DHT22;13760;52.588;13.406;2023-04-12T00:01:02;3.80;99.90
25963;DHT22;13760;52.588;13.406;2023-04-12T00:03:28;3.90;99.90
25963;DHT22;13760;52.588;13.406;2023-04-12T00:05:55;3.80;99.90
25963;DHT22;13760;52.588;13.406;2023-04-12T00:08:21;3.80;99.90
25963;DHT22;13760;52.588;13.406;2023-04-12T00:10:57;3.80;99.90
25963;DHT22;13760;52.588;13.406;2023-04-12T00:13:23;3.80;99.90
25963;DHT22;13760;52.588;13.406;2023-04-12T00:15:48;3.70;99.90
25963;DHT22;13760;52.588;13.406;2023-04-12T00:18:14;3.70;99.90
25963;DHT22;13760;52.588;13.406;2023-04-12T00:20:40;3.60;99.90
25963;DHT22;13760;52.588;13.406;2023-04-12T00:23:05;3.60;99.90
25963;DHT22;13760;52.588;13.406;2023-04-12T00:25:31;3.60;99.90
25963;DHT22;13760;52.588;13.406;2023-04-12T00:27:57;3.50;99.90
25963;DHT22;13760;52.588;13.406;2023-04-12T00:30:22;3.50;99.90
25963;DHT22;13760;52.588;13.406;2023-04-12T00:32:48;3.50;99.90
25963;DHT22;13760;52.588;13.406;2023-04-12T00:35:14;3.50;99.90
25963;DHT22;13760;52.588;13.406;2023-04-12T00:37:39;3.40;99.90
25963;DHT22;13760;52.588;13.406;2023-04-12T00:40:05;3.40;99.90
25963;DHT22;13760;52.588;13.406;2023-04-12T00:42:32;3.40;99.90
25963;DHT22;13760;52.588;13.406;2023-04-12T00:44:58;3.40;99.90
25963;DHT22;13760;52.588;13.406;2023-04-12T00:47:24;3.30;99.90
25963;DHT22;13760;52.588;13.406;2023-04-12T00:49:49;3.30;99.90
25963;DHT22;13760;52.588;13.406;2023-04-12T00:52:15;3.30;99.90
25963;DHT22;13760;52.588;13.406;2023-04-12T00:54:42;3.30;99.90
25963;DHT22;13760;52.588;13.406;2023-04-12T00:57:08;3.20;99.90
25963;DHT22;13760;52.588;13.406;2023-04-12T00:59:33;3.20;99.90
25963;DHT22;13760;52.588;13.406;2023-04-12T01:01:59;3.20;99.90
25963;DHT22;13760;52.588;13.406;2023-04-12T01:04:27;3.10;99.90
25963;DHT22;13760;52.588;13.406;2023-04-12T01:07:28;3.10;99.90
25963;DHT22;13760;52.588;13.406;2023-04-12T01:12:49;3.00;99.90
25963;DHT22;13760;52.588;13.406;2023-04-12T01:15:16;2.90;99.90
25963;DHT22;13760;52.588;13.406;2023-04-12T01:17:48;3.00;99.90
25963;DHT22;13760;52.588;13.406;2023-04-12T01:20:22;2.90;99.90
25963;DHT22;13760;52.588;13.406;2023-04-12T01:26:08;2.90;99.90
25963;DHT22;13760;52.588;13.406;2023-04-12T01:28:37;2.80;99.90
25963;DHT22;13760;52.588;13.406;2023-04-12T01:31:05;2.70;99.90
25963;DHT22;13760;52.588;13.406;2023-04-12T01:33:33;2.70;99.90
25963;DHT22;13760;52.588;13.406;2023-04-12T01:36:03;2.70;99.90
25963;DHT22;13760;52.588;13.406;2023-04-12T01:38:31;2.70;99.90
25963;DHT22;13760;52.588;13.406;2023-04-12T01:40:57;2.60;99.90
25963;DHT22;13760;52.588;13.406;2023-04-12T01:43:23;2.60;99.90
25963;DHT22;13760;52.588;13.406;2023-04-12T01:45:49;2.60;99.90
25963;DHT22;13760;52.588;13.406;2023-04-12T01:48:14;2.50;99.90
25963;DHT22;13760;52.588;13.406;2023-04-12T01:51:05;2.50;99.90
25963;DHT22;13760;52.588;13.406;2023-04-12T01:53:47;2.50;99.90
25963;DHT22;13760;52.588;13.406;2023-04-12T01:56:15;2.50;99.90
25963;DHT22;13760;52.588;13.406;2023-04-12T01:58:42;2.40;99.90
25963;DHT22;13760;52.588;13.406;2023-04-12T02:01:11;2.40;99.90
25963;DHT22;13760;52.588;13.406;2023-04-12T02:03:39;2.40;99.90
25963;DHT22;13760;52.588;13.406;2023-04-12T02:06:06;2.30;99.90
25963;DHT22;13760;52.588;13.406;2023-04-12T02:08:32;2.30;99.90
25963;DHT22;13760;52.588;13.406;2023-04-12T02:10:58;2.30;99.90
25963;DHT22;13760;52.588;13.406;2023-04-12T02:13:24;2.20;99.90
25963;DHT22;13760;52.588;13.406;2023-04-12T02:15:51;2.20;99.90
25963;DHT22;13760;52.588;13.406;2023-04-12T02:18:19;2.20;99.90
25963;DHT22;13760;52.588;13.406;2023-04-12T02:20:44;2.20;99.90
25963;DHT22;13760;52.588;13.406;2023-04-12T02:23:11;2.20;99.90
25963;DHT22;13760;52.588;13.406;2023-04-12T02:25:37;2.20;99.90
25963;DHT22;13760;52.588;13.406;2023-04-12T02:28:04;2.20;99.90
25963;DHT22;13760;52.588;13.406;2023-04-12T02:30:31;2.10;99.90
25963;DHT22;13760;52.588;13.406;2023-04-12T02:32:56;2.10;99.90
25963;DHT22;13760;52.588;13.406;2023-04-12T02:35:22;2.10;99.90
25963;DHT22;13760;52.588;13.406;2023-04-12T02:37:49;2.00;99.90
25963;DHT22;13760;52.588;13.406;2023-04-12T02:40:15;2.00;99.90
25963;DHT22;13760;52.588;13.406;2023-04-12T02:42:41;2.00;99.90
25963;DHT22;13760;52.588;13.406;2023-04-12T02:45:08;2.00;99.90
25963;DHT22;13760;52.588;13.406;2023-04-12T02:47:33;1.90;99.90
25963;DHT22;13760;52.588;13.406;2023-04-12T02:49:59;1.90;99.90
25963;DHT22;13760;52.588;13.406;2023-04-12T02:52:25;1.90;99.90
25963;DHT22;13760;52.588;13.406;2023-04-12T02:54:51;1.90;99.90
25963;DHT22;13760;52.588;13.406;2023-04-12T02:57:17;1.80;99.90
25963;DHT22;13760;52.588;13.406;2023-04-12T02:59:42;1.80;99.90
25963;DHT22;13760;52.588;13.406;2023-04-12T03:02:08;1.80;99.90
25963;DHT22;13760;52.588;13.406;2023-04-12T03:04:34;1.80;99.90
25963;DHT22;13760;52.588;13.406;2023-04-12T03:07:04;1.80;99.90
25963;DHT22;13760;52.588;13.406;2023-04-12T03:09:30;1.80;99.90
25963;DHT22;13760;52.588;13.406;2023-04-12T03:11:56;1.70;99.90
25963;DHT22;13760;52.588;13.406;2023-04-12T03:14:22;1.70;99.90
25963;DHT22;13760;52.588;13.406;2023-04-12T03:16:47;1.70;99.90
25963;DHT22;13760;52.588;13.406;2023-04-12T03:19:15;1.70;99.90
25963;DHT22;13760;52.588;13.406;2023-04-12T03:21:41;1.70;99.90
25963;DHT22;13760;52.588;13.406;2023-04-12T03:24:07;1.70;99.90
25963;DHT22;13760;52.588;13.406;2023-04-12T03:26:33;1.70;99.90
25963;DHT22;13760;52.588;13.406;2023-04-12T03:29:00;1.70;99.90
25963;DHT22;13760;52.588;13.406;2023-04-12T03:31:26;1.70;99.90
25963;DHT22;13760;52.588;13.406;2023-04-12T03:33:52;1.60;99.90
25963;DHT22;13760;52.588;13.406;2023-04-12T03:36:18;1.60;99.90
25963;DHT22;13760;52.588;13.406;2023-04-12T03:38:46;1.60;99.90
25963;DHT22;13760;52.588;13.406;2023-04-12T03:41:11;1.60;99.90
25963;DHT22;13760;52.588;13.406;2023-04-12T03:43:37;1.50;99.90
25963;DHT22;13760;52.588;13.406;2023-04-12T03:46:03;1.50;99.90
25963;DHT22;13760;52.588;13.406;2023-04-12T03:48:29;1.50;99.90
25963;DHT22;13760;52.588;13.406;2023-04-12T03:50:54;1.50;99.90
25963;DHT22;13760;52.588;13.406;2023-04-12T03:53:20;1.50;99.90
25963;DHT22;13760;52.588;13.406;2023-04-12T03:55:46;1.50;99.90
25963;DHT22;13760;52.588;13.406;2023-04-12T03:58:12;1.50;99.90
25963;DHT22;13760;52.588;13.406;2023-04-12T04:00:41;1.50;99.90
25963;DHT22;13760;52.588;13.406;2023-04-12T04:03:07;1.50;99.90
25963;DHT22;13760;52.588;13.406;2023-04-12T04:05:33;1.50;99.90
25963;DHT22;13760;52.588;13.406;2023-04-12T04:07:59;1.50;99.90
25963;DHT22;13760;52.588;13.406;2023-04-12T04:10:27;1.50;99.90
25963;DHT22;13760;52.588;13.406;2023-04-12T04:12:53;1.50;99.90
25963;DHT22;13760;52.588;13.406;2023-04-12T04:15:19;1.50;99.90
25963;DHT22;13760;52.588;13.406;2023-04-12T04:17:44;1.40;99.90
25963;DHT22;13760;52.588;13.406;2023-04-12T04:20:12;1.40;99.90
25963;DHT22;13760;52.588;13.406;2023-04-12T04:22:38;1.40;99.90
25963;DHT22;13760;52.588;13.406;2023-04-12T04:25:04;1.30;99.90
25963;DHT22;13760;52.588;13.406;2023-04-12T04:27:30;1.30;99.90
25963;DHT22;13760;52.588;13.406;2023-04-12T04:29:59;1.30;99.90
25963;DHT22;13760;52.588;13.406;2023-04-12T04:32:27;1.30;99.90
25963;DHT22;13760;52.588;13.406;2023-04-12T04:34:55;1.30;99.90
25963;DHT22;13760;52.588;13.406;2023-04-12T04:37:21;1.20;99.90
25963;DHT22;13760;52.588;13.406;2023-04-12T04:39:49;1.30;99.90
25963;DHT22;13760;52.588;13.406;2023-04-12T04:42:15;1.30;99.90
25963;DHT22;13760;52.588;13.406;2023-04-12T04:44:40;1.20;99.90
25963;DHT22;13760;52.588;13.406;2023-04-12T04:47:07;1.20;99.90
25963;DHT22;13760;52.588;13.406;2023-04-12T04:49:33;1.20;99.90
25963;DHT22;13760;52.588;13.406;2023-04-12T04:51:58;1.20;99.90
25963;DHT22;13760;52.588;13.406;2023-04-12T04:54:24;1.30;99.90
25963;DHT22;13760;52.588;13.406;2023-04-12T04:56:50;1.30;99.90
25963;DHT22;13760;52.588;13.406;2023-04-12T04:59:16;1.30;99.90
25963;DHT22;13760;52.588;13.406;2023-04-12T05:01:42;1.30;99.90
25963;DHT22;13760;52.588;13.406;2023-04-12T05:04:07;1.40;99.90
25963;DHT22;13760;52.588;13.406;2023-04-12T05:06:33;1.40;99.90
25963;DHT22;13760;52.588;13.406;2023-04-12T05:08:58;1.40;99.90
25963;DHT22;13760;52.588;13.406;2023-04-12T05:11:26;1.40;99.90
25963;DHT22;13760;52.588;13.406;2023-04-12T05:13:51;1.50;99.90
25963;DHT22;13760;52.588;13.406;2023-04-12T05:16:17;1.60;99.90
25963;DHT22;13760;52.588;13.406;2023-04-12T05:18:46;1.60;99.90
25963;DHT22;13760;52.588;13.406;2023-04-12T05:21:14;1.60;99.90
25963;DHT22;13760;52.588;13.406;2023-04-12T05:23:44;1.70;99.90
25963;DHT22;13760;52.588;13.406;2023-04-12T05:26:10;1.70;99.90
25963;DHT22;13760;52.588;13.406;2023-04-12T05:28:36;1.80;99.90
25963;DHT22;13760;52.588;13.406;2023-04-12T05:31:01;1.90;99.90
25963;DHT22;13760;52.588;13.406;2023-04-12T05:33:27;1.90;99.90
25963;DHT22;13760;52.588;13.406;2023-04-12T05:35:52;1.90;99.90
25963;DHT22;13760;52.588;13.406;2023-04-12T05:38:18;2.00;99.90
25963;DHT22;13760;52.588;13.406;2023-04-12T05:40:43;2.10;99.90
25963;DHT22;13760;52.588;13.406;2023-04-12T05:43:09;2.20;99.90
25963;DHT22;13760;52.588;13.406;2023-04-12T05:45:39;2.40;99.90
25963;DHT22;13760;52.588;13.406;2023-04-12T05:48:08;2.50;99.90
25963;DHT22;13760;52.588;13.406;2023-04-12T05:50:34;2.60;99.90
25963;DHT22;13760;52.588;13.406;2023-04-12T05:53:02;2.70;99.90
25963;DHT22;13760;52.588;13.406;2023-04-12T05:55:29;2.80;99.90
25963;DHT22;13760;52.588;13.406;2023-04-12T05:57:55;2.90;99.90
25963;DHT22;13760;52.588;13.406;2023-04-12T06:00:21;3.00;99.90
25963;DHT22;13760;52.588;13.406;2023-04-12T06:03:00;3.20;99.90
25963;DHT22;13760;52.588;13.406;2023-04-12T06:05:39;3.30;99.90
25963;DHT22;13760;52.588;13.406;2023-04-12T06:08:05;3.50;99.90
25963;DHT22;13760;52.588;13.406;2023-04-12T06:10:31;3.60;99.90
25963;DHT22;13760;52.588;13.406;2023-04-12T06:12:57;3.70;99.90
25963;DHT22;13760;52.588;13.406;2023-04-12T06:15:26;3.90;99.90
25963;DHT22;13760;52.588;13.406;2023-04-12T06:17:51;4.00;99.90
25963;DHT22;13760;52.588;13.406;2023-04-12T06:20:17;4.10;99.90
25963;DHT22;13760;52.588;13.406;2023-04-12T06:22:43;4.30;99.90
25963;DHT22;13760;52.588;13.406;2023-04-12T06:25:08;4.30;99.90
25963;DHT22;13760;52.588;13.406;2023-04-12T06:27:34;4.50;99.90
25963;DHT22;13760;52.588;13.406;2023-04-12T06:30:00;4.60;99.90
25963;DHT22;13760;52.588;13.406;2023-04-12T06:32:25;4.70;99.90
25963;DHT22;13760;52.588;13.406;2023-04-12T06:34:52;4.80;99.90
25963;DHT22;13760;52.588;13.406;2023-04-12T06:37:18;4.90;99.90
25963;DHT22;13760;52.588;13.406;2023-04-12T06:39:44;5.10;99.90
25963;DHT22;13760;52.588;13.406;2023-04-12T06:42:09;5.20;99.90
25963;DHT22;13760;52.588;13.406;2023-04-12T06:44:35;5.30;99.90
25963;DHT22;13760;52.588;13.406;2023-04-12T06:47:01;5.40;99.90
25963;DHT22;13760;52.588;13.406;2023-04-12T06:49:27;5.50;99.90
25963;DHT22;13760;52.588;13.406;2023-04-12T06:51:55;5.60;99.90
25963;DHT22;13760;52.588;13.406;2023-04-12T06:54:21;5.70;99.90
25963;DHT22;13760;52.588;13.406;2023-04-12T06:56:48;5.90;99.90
25963;DHT22;13760;52.588;13.406;2023-04-12T06:59:14;6.00;99.90
25963;DHT22;13760;52.588;13.406;2023-04-12T07:01:39;6.10;99.90
25963;DHT22;13760;52.588;13.406;2023-04-12T07:04:05;6.20;99.90
25963;DHT22;13760;52.588;13.406;2023-04-12T07:06:30;6.30;99.90
25963;DHT22;13760;52.588;13.406;2023-04-12T07:08:57;6.50;99.90
25963;DHT22;13760;52.588;13.406;2023-04-12T07:11:23;6.60;99.90
25963;DHT22;13760;52.588;13.406;2023-04-12T07:13:48;6.80;99.90
25963;DHT22;13760;52.588;13.406;2023-04-12T07:16:14;6.90;99.90
25963;DHT22;13760;52.588;13.406;2023-04-12T07:18:42;7.10;99.90
25963;DHT22;13760;52.588;13.406;2023-04-12T07:21:08;7.30;99.90
25963;DHT22;13760;52.588;13.406;2023-04-12T07:23:38;7.40;99.90
25963;DHT22;13760;52.588;13.406;2023-04-12T07:26:04;7.70;99.90
25963;DHT22;13760;52.588;13.406;2023-04-12T07:28:31;7.80;99.90
25963;DHT22;13760;52.588;13.406;2023-04-12T07:30:56;8.00;99.90
25963;DHT22;13760;52.588;13.406;2023-04-12T07:33:24;8.30;99.90
25963;DHT22;13760;52.588;13.406;2023-04-12T07:35:50;8.50;99.90
25963;DHT22;13760;52.588;13.406;2023-04-12T07:38:16;8.80;99.90
25963;DHT22;13760;52.588;13.406;2023-04-12T07:40:41;9.00;99.90
25963;DHT22;13760;52.588;13.406;2023-04-12T07:43:07;9.20;99.90
25963;DHT22;13760;52.588;13.406;2023-04-12T07:45:35;9.50;99.90
25963;DHT22;13760;52.588;13.406;2023-04-12T07:48:01;9.70;99.90
25963;DHT22;13760;52.588;13.406;2023-04-12T07:50:28;9.80;99.90
25963;DHT22;13760;52.588;13.406;2023-04-12T07:55:21;10.20;99.90
25963;DHT22;13760;52.588;13.406;2023-04-12T07:57:56;10.40;99.90
25963;DHT22;13760;52.588;13.406;2023-04-12T08:00:21;10.50;99.90
25963;DHT22;13760;52.588;13.406;2023-04-12T08:02:47;10.70;99.90
25963;DHT22;13760;52.588;13.406;2023-04-12T08:05:12;10.90;99.90
25963;DHT22;13760;52.588;13.406;2023-04-12T08:07:38;11.10;99.90
25963;DHT22;13760;52.588;13.406;2023-04-12T08:10:04;11.20;99.90
25963;DHT22;13760;52.588;13.406;2023-04-12T08:12:30;11.40;99.90
25963;DHT22;13760;52.588;13.406;2023-04-12T08:14:55;11.50;99.90
25963;DHT22;13760;52.588;13.406;2023-04-12T08:17:21;11.60;99.90
25963;DHT22;13760;52.588;13.406;2023-04-12T08:19:46;11.60;99.90
25963;DHT22;13760;52.588;13.406;2023-04-12T08:22:12;11.70;99.90
25963;DHT22;13760;52.588;13.406;2023-04-12T08:24:37;11.70;99.90
25963;DHT22;13760;52.588;13.406;2023-04-12T08:27:03;11.80;99.90
25963;DHT22;13760;52.588;13.406;2023-04-12T08:29:29;11.90;99.90
25963;DHT22;13760;52.588;13.406;2023-04-12T08:31:58;12.00;99.90
25963;DHT22;13760;52.588;13.406;2023-04-12T08:34:30;12.10;99.90
25963;DHT22;13760;52.588;13.406;2023-04-12T08:37:07;12.20;99.90
25963;DHT22;13760;52.588;13.406;2023-04-12T08:39:33;12.30;99.90
25963;DHT22;13760;52.588;13.406;2023-04-12T08:41:59;12.30;99.90
25963;DHT22;13760;52.588;13.406;2023-04-12T08:44:36;12.30;99.90
25963;DHT22;13760;52.588;13.406;2023-04-12T08:47:08;12.30;99.90
25963;DHT22;13760;52.588;13.406;2023-04-12T08:49:34;12.40;99.90
25963;DHT22;13760;52.588;13.406;2023-04-12T08:52:03;12.40;99.90
25963;DHT22;13760;52.588;13.406;2023-04-12T08:54:30;12.60;99.90
25963;DHT22;13760;52.588;13.406;2023-04-12T08:56:58;12.70;99.90
25963;DHT22;13760;52.588;13.406;2023-04-12T08:59:26;12.80;99.90
25963;DHT22;13760;52.588;13.406;2023-04-12T09:01:53;12.90;99.20
25963;DHT22;13760;52.588;13.406;2023-04-12T09:04:19;12.90;97.90
25963;DHT22;13760;52.588;13.406;2023-04-12T09:06:44;13.00;98.10
25963;DHT22;13760;52.588;13.406;2023-04-12T09:09:10;13.10;96.20
25963;DHT22;13760;52.588;13.406;2023-04-12T09:11:36;13.10;97.30
25963;DHT22;13760;52.588;13.406;2023-04-12T09:14:23;13.30;96.40
25963;DHT22;13760;52.588;13.406;2023-04-12T09:16:50;13.40;97.10
25963;DHT22;13760;52.588;13.406;2023-04-12T09:19:35;13.50;94.70
25963;DHT22;13760;52.588;13.406;2023-04-12T09:22:01;13.70;94.90
25963;DHT22;13760;52.588;13.406;2023-04-12T09:24:28;13.80;95.50
25963;DHT22;13760;52.588;13.406;2023-04-12T09:27:05;13.90;94.40
25963;DHT22;13760;52.588;13.406;2023-04-12T09:29:32;14.00;93.40
25963;DHT22;13760;52.588;13.406;2023-04-12T09:32:05;14.10;93.30
25963;DHT22;13760;52.588;13.406;2023-04-12T09:34:33;14.10;91.70
25963;DHT22;13760;52.588;13.406;2023-04-12T09:37:17;14.20;91.40
25963;DHT22;13760;52.588;13.406;2023-04-12T09:39:45;14.30;91.30
25963;DHT22;13760;52.588;13.406;2023-04-12T09:42:12;14.20;88.20
25963;DHT22;13760;52.588;13.406;2023-04-12T09:44:41;14.30;89.80
25963;DHT22;13760;52.588;13.406;2023-04-12T09:47:06;14.40;90.20
25963;DHT22;13760;52.588;13.406;2023-04-12T09:52:44;14.70;83.20
25963;DHT22;13760;52.588;13.406;2023-04-12T09:55:10;14.70;84.10
25963;DHT22;13760;52.588;13.406;2023-04-12T09:57:41;14.80;85.20
25963;DHT22;13760;52.588;13.406;2023-04-12T10:00:09;14.90;80.60
25963;DHT22;13760;52.588;13.406;2023-04-12T10:02:53;15.00;80.40
25963;DHT22;13760;52.588;13.406;2023-04-12T10:05:21;15.00;78.10
25963;DHT22;13760;52.588;13.406;2023-04-12T10:07:48;15.10;78.10
25963;DHT22;13760;52.588;13.406;2023-04-12T10:10:16;15.10;79.00
25963;DHT22;13760;52.588;13.406;2023-04-12T10:12:43;15.10;79.30
25963;DHT22;13760;52.588;13.406;2023-04-12T10:15:10;15.20;76.60
25963;DHT22;13760;52.588;13.406;2023-04-12T10:17:46;15.30;77.60
25963;DHT22;13760;52.588;13.406;2023-04-12T10:20:12;15.30;75.10
25963;DHT22;13760;52.588;13.406;2023-04-12T10:22:40;15.40;75.60
25963;DHT22;13760;52.588;13.406;2023-04-12T10:25:09;15.40;73.80
25963;DHT22;13760;52.588;13.406;2023-04-12T10:27:38;15.60;73.80
25963;DHT22;13760;52.588;13.406;2023-04-12T10:30:25;15.50;72.40
25963;DHT22;13760;52.588;13.406;2023-04-12T10:35:43;15.80;72.00
25963;DHT22;13760;52.588;13.406;2023-04-12T10:38:13;15.70;69.60
25963;DHT22;13760;52.588;13.406;2023-04-12T10:43:31;15.60;71.50
25963;DHT22;13760;52.588;13.406;2023-04-12T10:45:56;15.70;71.90
25963;DHT22;13760;52.588;13.406;2023-04-12T10:48:34;15.80;69.50
25963;DHT22;13760;52.588;13.406;2023-04-12T10:51:19;15.70;69.80
25963;DHT22;13760;52.588;13.406;2023-04-12T10:56:38;15.90;70.00
25963;DHT22;13760;52.588;13.406;2023-04-12T10:59:05;16.10;68.90
25963;DHT22;13760;52.588;13.406;2023-04-12T11:01:31;16.20;72.10
25963;DHT22;13760;52.588;13.406;2023-04-12T11:04:20;16.30;67.30
25963;DHT22;13760;52.588;13.406;2023-04-12T11:09:19;16.50;67.80
25963;DHT22;13760;52.588;13.406;2023-04-12T11:11:46;16.50;66.70
25963;DHT22;13760;52.588;13.406;2023-04-12T11:14:14;16.50;66.60
25963;DHT22;13760;52.588;13.406;2023-04-12T11:19:37;16.50;65.90
25963;DHT22;13760;52.588;13.406;2023-04-12T11:22:03;16.60;65.00
25963;DHT22;13760;52.588;13.406;2023-04-12T11:24:29;16.60;64.30
25963;DHT22;13760;52.588;13.406;2023-04-12T11:26:56;16.70;65.10
25963;DHT22;13760;52.588;13.406;2023-04-12T11:29:36;16.60;64.40
25963;DHT22;13760;52.588;13.406;2023-04-12T11:32:02;16.70;64.60
25963;DHT22;13760;52.588;13.406;2023-04-12T11:34:32;16.80;64.40
25963;DHT22;13760;52.588;13.406;2023-04-12T11:36:58;16.70;63.40
25963;DHT22;13760;52.588;13.406;2023-04-12T11:39:25;16.70;64.60
25963;DHT22;13760;52.588;13.406;2023-04-12T11:41:54;16.70;63.50
25963;DHT22;13760;52.588;13.406;2023-04-12T11:44:21;16.80;63.60
25963;DHT22;13760;52.588;13.406;2023-04-12T11:46:47;17.00;64.10
25963;DHT22;13760;52.588;13.406;2023-04-12T11:49:17;17.00;63.70
25963;DHT22;13760;52.588;13.406;2023-04-12T11:51:44;17.10;63.00
25963;DHT22;13760;52.588;13.406;2023-04-12T11:54:10;17.00;62.00
25963;DHT22;13760;52.588;13.406;2023-04-12T11:56:36;16.90;61.70
25963;DHT22;13760;52.588;13.406;2023-04-12T11:59:02;17.00;62.00
25963;DHT22;13760;52.588;13.406;2023-04-12T12:01:28;17.10;61.80
25963;DHT22;13760;52.588;13.406;2023-04-12T12:03:54;17.10;62.40
25963;DHT22;13760;52.588;13.406;2023-04-12T12:06:21;16.90;62.40
25963;DHT22;13760;52.588;13.406;2023-04-12T12:08:49;16.70;60.90
25963;DHT22;13760;52.588;13.406;2023-04-12T12:11:16;16.60;61.90
25963;DHT22;13760;52.588;13.406;2023-04-12T12:16:14;16.50;62.20
25963;DHT22;13760;52.588;13.406;2023-04-12T12:18:43;16.50;60.90
25963;DHT22;13760;52.588;13.406;2023-04-12T12:21:13;16.40;60.60
25963;DHT22;13760;52.588;13.406;2023-04-12T12:23:41;16.30;61.10
25963;DHT22;13760;52.588;13.406;2023-04-12T12:26:07;16.20;60.60
25963;DHT22;13760;52.588;13.406;2023-04-12T12:28:39;16.20;61.70
25963;DHT22;13760;52.588;13.406;2023-04-12T12:31:05;16.10;59.90
25963;DHT22;13760;52.588;13.406;2023-04-12T12:33:38;16.10;61.20
25963;DHT22;13760;52.588;13.406;2023-04-12T12:36:05;16.00;61.30
25963;DHT22;13760;52.588;13.406;2023-04-12T12:38:35;16.00;60.20
25963;DHT22;13760;52.588;13.406;2023-04-12T12:41:21;16.10;60.60
25963;DHT22;13760;52.588;13.406;2023-04-12T12:43:49;16.10;59.90
25963;DHT22;13760;52.588;13.406;2023-04-12T12:46:16;16.10;61.10
25963;DHT22;13760;52.588;13.406;2023-04-12T12:48:43;16.10;59.90
25963;DHT22;13760;52.588;13.406;2023-04-12T12:51:10;16.20;61.30
25963;DHT22;13760;52.588;13.406;2023-04-12T12:53:38;16.20;60.30
25963;DHT22;13760;52.588;13.406;2023-04-12T12:56:04;16.20;61.00
25963;DHT22;13760;52.588;13.406;2023-04-12T12:58:30;16.20;61.90
25963;DHT22;13760;52.588;13.406;2023-04-12T13:00:56;16.30;61.90
25963;DHT22;13760;52.588;13.406;2023-04-12T13:03:24;16.30;61.00
25963;DHT22;13760;52.588;13.406;2023-04-12T13:05:52;16.20;62.10
25963;DHT22;13760;52.588;13.406;2023-04-12T13:08:17;16.10;60.00
25963;DHT22;13760;52.588;13.406;2023-04-12T13:10:44;16.10;61.60
25963;DHT22;13760;52.588;13.406;2023-04-12T13:13:10;16.10;61.70
25963;DHT22;13760;52.588;13.406;2023-04-12T13:15:38;16.00;60.70
25963;DHT22;13760;52.588;13.406;2023-04-12T13:18:04;16.10;62.60
25963;DHT22;13760;52.588;13.406;2023-04-12T13:20:30;16.10;62.00
25963;DHT22;13760;52.588;13.406;2023-04-12T13:22:56;16.20;61.00
25963;DHT22;13760;52.588;13.406;2023-04-12T13:25:22;16.20;59.60
25963;DHT22;13760;52.588;13.406;2023-04-12T13:27:48;16.30;59.60
25963;DHT22;13760;52.588;13.406;2023-04-12T13:30:18;16.50;60.10
25963;DHT22;13760;52.588;13.406;2023-04-12T13:32:44;16.60;60.10
25963;DHT22;13760;52.588;13.406;2023-04-12T13:35:10;16.60;59.90
25963;DHT22;13760;52.588;13.406;2023-04-12T13:37:36;16.60;59.40
25963;DHT22;13760;52.588;13.406;2023-04-12T13:40:02;16.50;59.10
25963;DHT22;13760;52.588;13.406;2023-04-12T13:42:28;16.30;59.10
25963;DHT22;13760;52.588;13.406;2023-04-12T13:44:53;16.20;60.00
25963;DHT22;13760;52.588;13.406;2023-04-12T13:47:19;16.20;60.40
25963;DHT22;13760;52.588;13.406;2023-04-12T13:49:45;16.20;60.30
25963;DHT22;13760;52.588;13.406;2023-04-12T13:52:11;16.10;61.20
25963;DHT22;13760;52.588;13.406;2023-04-12T13:54:37;16.10;61.20
25963;DHT22;13760;52.588;13.406;2023-04-12T13:57:06;16.20;60.60
25963;DHT22;13760;52.588;13.406;2023-04-12T13:59:33;16.20;62.00
25963;DHT22;13760;52.588;13.406;2023-04-12T14:01:59;16.20;60.20
25963;DHT22;13760;52.588;13.406;2023-04-12T14:04:27;16.20;61.40
25963;DHT22;13760;52.588;13.406;2023-04-12T14:06:53;16.10;59.80
25963;DHT22;13760;52.588;13.406;2023-04-12T14:09:23;16.00;60.00
25963;DHT22;13760;52.588;13.406;2023-04-12T14:11:52;15.90;61.50
25963;DHT22;13760;52.588;13.406;2023-04-12T14:14:21;15.70;61.80
25963;DHT22;13760;52.588;13.406;2023-04-12T14:16:51;15.50;62.10
25963;DHT22;13760;52.588;13.406;2023-04-12T14:19:18;15.50;63.20
25963;DHT22;13760;52.588;13.406;2023-04-12T14:21:46;15.40;63.90
25963;DHT22;13760;52.588;13.406;2023-04-12T14:24:11;15.40;64.20
25963;DHT22;13760;52.588;13.406;2023-04-12T14:26:37;15.30;64.20
25963;DHT22;13760;52.588;13.406;2023-04-12T14:29:04;15.20;63.20
25963;DHT22;13760;52.588;13.406;2023-04-12T14:31:30;15.10;64.80
25963;DHT22;13760;52.588;13.406;2023-04-12T14:33:56;15.10;64.10
25963;DHT22;13760;52.588;13.406;2023-04-12T14:36:24;15.00;64.10
25963;DHT22;13760;52.588;13.406;2023-04-12T14:38:51;14.90;65.40
25963;DHT22;13760;52.588;13.406;2023-04-12T14:41:18;14.90;65.20
25963;DHT22;13760;52.588;13.406;2023-04-12T14:43:43;14.90;65.70
25963;DHT22;13760;52.588;13.406;2023-04-12T14:46:10;14.90;65.80
25963;DHT22;13760;52.588;13.406;2023-04-12T14:48:36;14.90;65.40
25963;DHT22;13760;52.588;13.406;2023-04-12T14:51:01;14.80;66.90
25963;DHT22;13760;52.588;13.406;2023-04-12T14:53:28;14.60;69.60
25963;DHT22;13760;52.588;13.406;2023-04-12T14:55:54;14.50;69.60
25963;DHT22;13760;52.588;13.406;2023-04-12T15:00:59;14.30;72.40
25963;DHT22;13760;52.588;13.406;2023-04-12T15:03:25;14.20;73.70
25963;DHT22;13760;52.588;13.406;2023-04-12T15:05:53;14.10;72.90
25963;DHT22;13760;52.588;13.406;2023-04-12T15:08:19;14.00;73.50
25963;DHT22;13760;52.588;13.406;2023-04-12T15:10:47;14.00;73.30
25963;DHT22;13760;52.588;13.406;2023-04-12T15:13:13;13.90;73.90
25963;DHT22;13760;52.588;13.406;2023-04-12T15:15:39;14.00;71.40
25963;DHT22;13760;52.588;13.406;2023-04-12T15:18:08;14.00;69.60
25963;DHT22;13760;52.588;13.406;2023-04-12T15:20:37;14.00;70.40
25963;DHT22;13760;52.588;13.406;2023-04-12T15:23:05;14.00;70.90
25963;DHT22;13760;52.588;13.406;2023-04-12T15:25:31;13.90;71.40
25963;DHT22;13760;52.588;13.406;2023-04-12T15:27:57;13.80;73.60
25963;DHT22;13760;52.588;13.406;2023-04-12T15:30:23;13.70;75.70
25963;DHT22;13760;52.588;13.406;2023-04-12T15:32:48;13.70;77.70
25963;DHT22;13760;52.588;13.406;2023-04-12T15:35:14;13.60;79.00
25963;DHT22;13760;52.588;13.406;2023-04-12T15:37:42;13.50;80.90
25963;DHT22;13760;52.588;13.406;2023-04-12T15:40:08;13.40;82.10
25963;DHT22;13760;52.588;13.406;2023-04-12T15:42:42;13.40;84.40
25963;DHT22;13760;52.588;13.406;2023-04-12T15:45:09;13.20;88.10
25963;DHT22;13760;52.588;13.406;2023-04-12T15:47:35;13.10;87.70
25963;DHT22;13760;52.588;13.406;2023-04-12T15:50:04;13.00;90.20
25963;DHT22;13760;52.588;13.406;2023-04-12T15:52:29;12.90;90.40
25963;DHT22;13760;52.588;13.406;2023-04-12T15:54:55;12.90;91.70